sensor_id;sensor_type;location;lat;lon;timestamp;P1;durP1;ratioP1;P2;durP2;ratioP2
44438;SDS011;30145;48.874;10.186;2022-10-16T00:01:09;1.50;;;1.00;;
44438;SDS011;30145;48.874;10.186;2022-10-16T00:03:38;1.97;;;1.30;;
44438;SDS011;30145;48.874;10.186;2022-10-16T00:06:06;1.57;;;1.27;;
44438;SDS011;30145;48.874;10.186;2022-10-16T00:08:34;1.53;;;1.27;;
44438;SDS011;30145;48.874;10.186;2022-10-16T00:11:03;1.20;;;1.10;;
44438;SDS011;30145;48.874;10.186;2022-10-16T00:13:40;2.87;;;1.40;;
44438;SDS011;30145;48.874;10.186;2022-10-16T00:16:08;1.27;;;1.10;;
44438;SDS011;30145;48.874;10.186;2022-10-16T00:18:36;3.87;;;1.10;;
44438;SDS011;30145;48.874;10.186;2022-10-16T00:21:07;1.90;;;1.10;;
44438;SDS011;30145;48.874;10.186;2022-10-16T00:23:58;1.33;;;1.20;;
44438;SDS011;30145;48.874;10.186;2022-10-16T00:26:28;1.43;;;1.30;;
44438;SDS011;30145;48.874;10.186;2022-10-16T00:28:57;2.43;;;1.30;;
44438;SDS011;30145;48.874;10.186;2022-10-16T00:31:24;4.40;;;1.40;;
44438;SDS011;30145;48.874;10.186;2022-10-16T00:33:51;3.67;;;1.20;;
44438;SDS011;30145;48.874;10.186;2022-10-16T00:36:20;1.83;;;1.43;;
44438;SDS011;30145;48.874;10.186;2022-10-16T00:38:53;1.50;;;1.40;;
44438;SDS011;30145;48.874;10.186;2022-10-16T00:41:22;2.00;;;1.40;;
44438;SDS011;30145;48.874;10.186;2022-10-16T00:46:21;3.70;;;1.50;;
44438;SDS011;30145;48.874;10.186;2022-10-16T00:48:55;4.80;;;1.40;;
44438;SDS011;30145;48.874;10.186;2022-10-16T00:51:45;2.47;;;1.17;;
44438;SDS011;30145;48.874;10.186;2022-10-16T00:54:23;3.73;;;1.30;;
44438;SDS011;30145;48.874;10.186;2022-10-16T00:56:52;2.70;;;1.30;;
44438;SDS011;30145;48.874;10.186;2022-10-16T00:59:30;7.73;;;1.70;;
44438;SDS011;30145;48.874;10.186;2022-10-16T01:02:00;3.47;;;1.27;;
44438;SDS011;30145;48.874;10.186;2022-10-16T01:04:28;3.43;;;1.40;;
44438;SDS011;30145;48.874;10.186;2022-10-16T01:12:40;3.70;;;1.20;;
44438;SDS011;30145;48.874;10.186;2022-10-16T01:15:13;3.13;;;1.20;;
44438;SDS011;30145;48.874;10.186;2022-10-16T01:20:33;1.53;;;1.10;;
44438;SDS011;30145;48.874;10.186;2022-10-16T01:23:10;2.90;;;1.10;;
44438;SDS011;30145;48.874;10.186;2022-10-16T01:31:10;2.20;;;1.00;;
44438;SDS011;30145;48.874;10.186;2022-10-16T01:33:40;3.50;;;1.50;;
44438;SDS011;30145;48.874;10.186;2022-10-16T01:36:16;2.73;;;1.23;;
44438;SDS011;30145;48.874;10.186;2022-10-16T01:38:48;1.30;;;1.17;;
44438;SDS011;30145;48.874;10.186;2022-10-16T01:41:38;2.10;;;1.20;;
44438;SDS011;30145;48.874;10.186;2022-10-16T01:44:06;3.23;;;1.07;;
44438;SDS011;30145;48.874;10.186;2022-10-16T01:46:36;1.63;;;1.10;;
44438;SDS011;30145;48.874;10.186;2022-10-16T01:49:04;2.27;;;0.90;;
44438;SDS011;30145;48.874;10.186;2022-10-16T01:51:33;2.20;;;1.13;;
44438;SDS011;30145;48.874;10.186;2022-10-16T01:54:01;1.90;;;1.40;;
44438;SDS011;30145;48.874;10.186;2022-10-16T01:56:28;1.80;;;1.30;;
44438;SDS011;30145;48.874;10.186;2022-10-16T01:58:57;4.20;;;1.20;;
44438;SDS011;30145;48.874;10.186;2022-10-16T02:01:31;1.80;;;1.00;;
44438;SDS011;30145;48.874;10.186;2022-10-16T02:04:00;2.20;;;1.23;;
44438;SDS011;30145;48.874;10.186;2022-10-16T02:06:31;3.30;;;1.67;;
44438;SDS011;30145;48.874;10.186;2022-10-16T02:08:58;2.00;;;1.20;;
44438;SDS011;30145;48.874;10.186;2022-10-16T02:11:26;2.50;;;1.13;;
44438;SDS011;30145;48.874;10.186;2022-10-16T02:13:58;1.97;;;1.20;;
44438;SDS011;30145;48.874;10.186;2022-10-16T02:16:35;3.40;;;1.20;;
44438;SDS011;30145;48.874;10.186;2022-10-16T02:19:05;2.60;;;1.40;;
44438;SDS011;30145;48.874;10.186;2022-10-16T02:29:53;4.10;;;1.57;;
44438;SDS011;30145;48.874;10.186;2022-10-16T02:32:28;3.37;;;1.47;;
44438;SDS011;30145;48.874;10.186;2022-10-16T02:34:57;1.30;;;1.20;;
44438;SDS011;30145;48.874;10.186;2022-10-16T02:37:25;3.57;;;1.93;;
44438;SDS011;30145;48.874;10.186;2022-10-16T02:39:54;2.60;;;1.70;;
44438;SDS011;30145;48.874;10.186;2022-10-16T02:42:27;1.97;;;1.50;;
44438;SDS011;30145;48.874;10.186;2022-10-16T02:45:04;3.53;;;1.23;;
44438;SDS011;30145;48.874;10.186;2022-10-16T02:47:32;1.57;;;1.47;;
44438;SDS011;30145;48.874;10.186;2022-10-16T02:49:59;3.53;;;1.50;;
44438;SDS011;30145;48.874;10.186;2022-10-16T02:52:26;5.93;;;1.80;;
44438;SDS011;30145;48.874;10.186;2022-10-16T02:54:53;2.33;;;1.70;;
44438;SDS011;30145;48.874;10.186;2022-10-16T02:57:20;3.27;;;1.43;;
44438;SDS011;30145;48.874;10.186;2022-10-16T02:59:47;2.70;;;1.30;;
44438;SDS011;30145;48.874;10.186;2022-10-16T03:02:14;4.10;;;1.40;;
44438;SDS011;30145;48.874;10.186;2022-10-16T03:04:41;3.23;;;1.80;;
44438;SDS011;30145;48.874;10.186;2022-10-16T03:07:08;3.87;;;1.40;;
44438;SDS011;30145;48.874;10.186;2022-10-16T03:09:35;2.07;;;1.77;;
44438;SDS011;30145;48.874;10.186;2022-10-16T03:12:02;1.77;;;1.50;;
44438;SDS011;30145;48.874;10.186;2022-10-16T03:14:29;3.57;;;1.87;;
44438;SDS011;30145;48.874;10.186;2022-10-16T03:16:56;2.77;;;1.90;;
44438;SDS011;30145;48.874;10.186;2022-10-16T03:19:23;3.80;;;2.17;;
44438;SDS011;30145;48.874;10.186;2022-10-16T03:21:50;3.97;;;2.00;;
44438;SDS011;30145;48.874;10.186;2022-10-16T03:24:17;2.00;;;1.43;;
44438;SDS011;30145;48.874;10.186;2022-10-16T03:26:44;4.23;;;2.10;;
44438;SDS011;30145;48.874;10.186;2022-10-16T03:29:11;3.07;;;1.90;;
44438;SDS011;30145;48.874;10.186;2022-10-16T03:31:39;3.77;;;2.07;;
44438;SDS011;30145;48.874;10.186;2022-10-16T03:34:06;2.30;;;2.10;;
44438;SDS011;30145;48.874;10.186;2022-10-16T03:36:32;2.67;;;2.17;;
44438;SDS011;30145;48.874;10.186;2022-10-16T03:39:00;5.73;;;2.03;;
44438;SDS011;30145;48.874;10.186;2022-10-16T03:41:27;2.70;;;2.10;;
44438;SDS011;30145;48.874;10.186;2022-10-16T03:43:54;3.70;;;1.87;;
44438;SDS011;30145;48.874;10.186;2022-10-16T03:46:21;3.57;;;1.97;;
44438;SDS011;30145;48.874;10.186;2022-10-16T03:48:48;3.10;;;2.07;;
44438;SDS011;30145;48.874;10.186;2022-10-16T03:51:15;7.23;;;2.07;;
44438;SDS011;30145;48.874;10.186;2022-10-16T03:53:42;3.67;;;2.30;;
44438;SDS011;30145;48.874;10.186;2022-10-16T03:56:09;4.70;;;2.63;;
44438;SDS011;30145;48.874;10.186;2022-10-16T03:58:36;4.60;;;2.50;;
44438;SDS011;30145;48.874;10.186;2022-10-16T04:01:03;3.40;;;2.60;;
44438;SDS011;30145;48.874;10.186;2022-10-16T04:03:30;3.80;;;2.40;;
44438;SDS011;30145;48.874;10.186;2022-10-16T04:05:57;2.50;;;2.30;;
44438;SDS011;30145;48.874;10.186;2022-10-16T04:08:24;2.50;;;2.17;;
44438;SDS011;30145;48.874;10.186;2022-10-16T04:10:51;3.60;;;2.23;;
44438;SDS011;30145;48.874;10.186;2022-10-16T04:13:18;3.03;;;2.13;;
44438;SDS011;30145;48.874;10.186;2022-10-16T04:15:50;3.47;;;2.27;;
44438;SDS011;30145;48.874;10.186;2022-10-16T04:18:17;3.63;;;2.63;;
44438;SDS011;30145;48.874;10.186;2022-10-16T04:20:44;6.60;;;2.90;;
44438;SDS011;30145;48.874;10.186;2022-10-16T04:23:11;3.50;;;2.30;;
44438;SDS011;30145;48.874;10.186;2022-10-16T04:25:38;3.97;;;2.40;;
44438;SDS011;30145;48.874;10.186;2022-10-16T04:28:05;2.00;;;1.80;;
44438;SDS011;30145;48.874;10.186;2022-10-16T04:30:32;5.00;;;2.50;;
44438;SDS011;30145;48.874;10.186;2022-10-16T04:33:00;4.00;;;2.20;;
44438;SDS011;30145;48.874;10.186;2022-10-16T04:35:32;5.17;;;2.00;;
44438;SDS011;30145;48.874;10.186;2022-10-16T04:37:59;4.90;;;2.00;;
44438;SDS011;30145;48.874;10.186;2022-10-16T04:40:26;3.80;;;2.20;;
44438;SDS011;30145;48.874;10.186;2022-10-16T04:42:53;4.13;;;2.17;;
44438;SDS011;30145;48.874;10.186;2022-10-16T04:45:20;7.33;;;2.40;;
44438;SDS011;30145;48.874;10.186;2022-10-16T04:47:46;5.90;;;2.63;;
44438;SDS011;30145;48.874;10.186;2022-10-16T04:50:14;3.30;;;2.40;;
44438;SDS011;30145;48.874;10.186;2022-10-16T04:52:41;2.50;;;2.30;;
44438;SDS011;30145;48.874;10.186;2022-10-16T04:55:08;2.67;;;2.33;;
44438;SDS011;30145;48.874;10.186;2022-10-16T04:57:35;9.17;;;3.00;;
44438;SDS011;30145;48.874;10.186;2022-10-16T05:00:02;2.57;;;2.37;;
44438;SDS011;30145;48.874;10.186;2022-10-16T05:02:30;3.47;;;2.80;;
44438;SDS011;30145;48.874;10.186;2022-10-16T05:04:57;3.20;;;2.90;;
44438;SDS011;30145;48.874;10.186;2022-10-16T05:07:24;3.23;;;2.93;;
44438;SDS011;30145;48.874;10.186;2022-10-16T05:09:51;5.50;;;2.97;;
44438;SDS011;30145;48.874;10.186;2022-10-16T05:12:18;4.10;;;3.10;;
44438;SDS011;30145;48.874;10.186;2022-10-16T05:14:45;3.00;;;2.80;;
44438;SDS011;30145;48.874;10.186;2022-10-16T05:17:12;3.27;;;2.90;;
44438;SDS011;30145;48.874;10.186;2022-10-16T05:19:39;4.73;;;3.37;;
44438;SDS011;30145;48.874;10.186;2022-10-16T05:22:06;4.17;;;3.03;;
44438;SDS011;30145;48.874;10.186;2022-10-16T05:24:33;4.43;;;3.00;;
44438;SDS011;30145;48.874;10.186;2022-10-16T05:27:00;6.50;;;3.43;;
44438;SDS011;30145;48.874;10.186;2022-10-16T05:29:27;5.90;;;3.47;;
44438;SDS011;30145;48.874;10.186;2022-10-16T05:31:54;3.70;;;2.87;;
44438;SDS011;30145;48.874;10.186;2022-10-16T05:34:21;3.57;;;2.67;;
44438;SDS011;30145;48.874;10.186;2022-10-16T05:36:48;3.60;;;2.53;;
44438;SDS011;30145;48.874;10.186;2022-10-16T05:39:15;3.53;;;2.20;;
44438;SDS011;30145;48.874;10.186;2022-10-16T05:41:42;3.80;;;3.10;;
44438;SDS011;30145;48.874;10.186;2022-10-16T05:44:10;2.40;;;2.20;;
44438;SDS011;30145;48.874;10.186;2022-10-16T05:46:37;2.93;;;2.30;;
44438;SDS011;30145;48.874;10.186;2022-10-16T05:49:04;4.27;;;2.10;;
44438;SDS011;30145;48.874;10.186;2022-10-16T05:51:31;5.93;;;2.30;;
44438;SDS011;30145;48.874;10.186;2022-10-16T05:53:58;3.47;;;2.07;;
44438;SDS011;30145;48.874;10.186;2022-10-16T05:56:25;4.43;;;2.40;;
44438;SDS011;30145;48.874;10.186;2022-10-16T05:58:52;2.57;;;2.37;;
44438;SDS011;30145;48.874;10.186;2022-10-16T06:01:19;3.47;;;2.43;;
44438;SDS011;30145;48.874;10.186;2022-10-16T06:03:51;3.23;;;2.17;;
44438;SDS011;30145;48.874;10.186;2022-10-16T06:06:19;4.07;;;2.43;;
44438;SDS011;30145;48.874;10.186;2022-10-16T06:08:48;4.77;;;2.03;;
44438;SDS011;30145;48.874;10.186;2022-10-16T06:11:19;2.07;;;1.90;;
44438;SDS011;30145;48.874;10.186;2022-10-16T06:13:51;1.70;;;1.60;;
44438;SDS011;30145;48.874;10.186;2022-10-16T06:16:19;2.00;;;1.80;;
44438;SDS011;30145;48.874;10.186;2022-10-16T06:18:46;3.83;;;2.00;;
44438;SDS011;30145;48.874;10.186;2022-10-16T06:21:16;1.90;;;1.80;;
44438;SDS011;30145;48.874;10.186;2022-10-16T06:23:45;3.80;;;2.10;;
44438;SDS011;30145;48.874;10.186;2022-10-16T06:26:14;2.27;;;1.90;;
44438;SDS011;30145;48.874;10.186;2022-10-16T06:28:42;5.93;;;2.03;;
44438;SDS011;30145;48.874;10.186;2022-10-16T06:31:11;2.97;;;2.60;;
44438;SDS011;30145;48.874;10.186;2022-10-16T06:33:38;4.40;;;2.07;;
44438;SDS011;30145;48.874;10.186;2022-10-16T06:36:07;2.50;;;1.67;;
44438;SDS011;30145;48.874;10.186;2022-10-16T06:38:38;4.47;;;2.07;;
44438;SDS011;30145;48.874;10.186;2022-10-16T06:41:06;3.23;;;2.00;;
44438;SDS011;30145;48.874;10.186;2022-10-16T06:43:34;2.10;;;1.90;;
44438;SDS011;30145;48.874;10.186;2022-10-16T06:46:04;2.40;;;1.90;;
44438;SDS011;30145;48.874;10.186;2022-10-16T06:48:34;2.07;;;1.73;;
44438;SDS011;30145;48.874;10.186;2022-10-16T06:51:05;2.10;;;1.80;;
44438;SDS011;30145;48.874;10.186;2022-10-16T06:53:34;2.87;;;1.90;;
44438;SDS011;30145;48.874;10.186;2022-10-16T06:58:35;3.60;;;2.17;;
44438;SDS011;30145;48.874;10.186;2022-10-16T07:01:02;3.53;;;1.93;;
44438;SDS011;30145;48.874;10.186;2022-10-16T07:03:30;2.50;;;2.23;;
44438;SDS011;30145;48.874;10.186;2022-10-16T07:06:00;2.60;;;2.03;;
44438;SDS011;30145;48.874;10.186;2022-10-16T07:08:33;3.83;;;1.93;;
44438;SDS011;30145;48.874;10.186;2022-10-16T07:11:01;1.70;;;1.50;;
44438;SDS011;30145;48.874;10.186;2022-10-16T07:13:29;3.50;;;2.03;;
44438;SDS011;30145;48.874;10.186;2022-10-16T07:15:56;4.37;;;1.93;;
44438;SDS011;30145;48.874;10.186;2022-10-16T07:18:23;5.57;;;1.53;;
44438;SDS011;30145;48.874;10.186;2022-10-16T07:20:53;1.70;;;1.60;;
44438;SDS011;30145;48.874;10.186;2022-10-16T07:23:20;2.10;;;1.63;;
44438;SDS011;30145;48.874;10.186;2022-10-16T07:25:52;2.77;;;1.70;;
44438;SDS011;30145;48.874;10.186;2022-10-16T07:28:20;2.80;;;1.60;;
44438;SDS011;30145;48.874;10.186;2022-10-16T07:30:47;6.07;;;2.23;;
44438;SDS011;30145;48.874;10.186;2022-10-16T07:33:14;4.63;;;1.70;;
44438;SDS011;30145;48.874;10.186;2022-10-16T07:35:51;2.77;;;1.90;;
44438;SDS011;30145;48.874;10.186;2022-10-16T07:38:19;2.70;;;1.67;;
44438;SDS011;30145;48.874;10.186;2022-10-16T07:40:47;2.27;;;1.73;;
44438;SDS011;30145;48.874;10.186;2022-10-16T07:43:14;1.83;;;1.40;;
44438;SDS011;30145;48.874;10.186;2022-10-16T07:45:48;5.50;;;2.00;;
44438;SDS011;30145;48.874;10.186;2022-10-16T07:48:21;2.83;;;2.03;;
44438;SDS011;30145;48.874;10.186;2022-10-16T07:50:49;11.90;;;8.30;;
44438;SDS011;30145;48.874;10.186;2022-10-16T07:53:16;2.80;;;2.53;;
44438;SDS011;30145;48.874;10.186;2022-10-16T07:55:43;5.40;;;2.80;;
44438;SDS011;30145;48.874;10.186;2022-10-16T07:58:10;3.00;;;2.50;;
44438;SDS011;30145;48.874;10.186;2022-10-16T08:00:37;3.00;;;2.40;;
44438;SDS011;30145;48.874;10.186;2022-10-16T08:03:04;4.67;;;2.50;;
44438;SDS011;30145;48.874;10.186;2022-10-16T08:05:31;4.73;;;2.70;;
44438;SDS011;30145;48.874;10.186;2022-10-16T08:08:00;4.10;;;2.60;;
44438;SDS011;30145;48.874;10.186;2022-10-16T08:10:28;4.07;;;2.93;;
44438;SDS011;30145;48.874;10.186;2022-10-16T08:12:56;7.33;;;3.47;;
44438;SDS011;30145;48.874;10.186;2022-10-16T08:15:23;3.33;;;2.60;;
44438;SDS011;30145;48.874;10.186;2022-10-16T08:18:03;3.20;;;2.60;;
44438;SDS011;30145;48.874;10.186;2022-10-16T08:20:31;6.70;;;2.40;;
44438;SDS011;30145;48.874;10.186;2022-10-16T08:22:59;3.63;;;2.00;;
44438;SDS011;30145;48.874;10.186;2022-10-16T08:25:26;7.47;;;2.00;;
44438;SDS011;30145;48.874;10.186;2022-10-16T08:27:54;3.60;;;2.30;;
44438;SDS011;30145;48.874;10.186;2022-10-16T08:30:21;4.70;;;2.70;;
44438;SDS011;30145;48.874;10.186;2022-10-16T08:32:50;3.50;;;2.10;;
44438;SDS011;30145;48.874;10.186;2022-10-16T08:35:17;2.17;;;1.97;;
44438;SDS011;30145;48.874;10.186;2022-10-16T08:37:44;3.20;;;1.90;;
44438;SDS011;30145;48.874;10.186;2022-10-16T08:40:15;3.87;;;1.87;;
44438;SDS011;30145;48.874;10.186;2022-10-16T08:42:53;2.03;;;1.77;;
44438;SDS011;30145;48.874;10.186;2022-10-16T08:50:40;4.60;;;1.77;;
44438;SDS011;30145;48.874;10.186;2022-10-16T08:53:09;3.77;;;1.80;;
44438;SDS011;30145;48.874;10.186;2022-10-16T08:55:43;4.10;;;1.70;;
44438;SDS011;30145;48.874;10.186;2022-10-16T08:58:30;2.70;;;1.60;;
44438;SDS011;30145;48.874;10.186;2022-10-16T09:01:01;2.50;;;1.60;;
44438;SDS011;30145;48.874;10.186;2022-10-16T09:06:39;3.43;;;1.80;;
44438;SDS011;30145;48.874;10.186;2022-10-16T09:22:44;6.10;;;2.10;;
44438;SDS011;30145;48.874;10.186;2022-10-16T09:25:13;2.00;;;1.80;;
44438;SDS011;30145;48.874;10.186;2022-10-16T09:27:45;3.03;;;2.17;;
44438;SDS011;30145;48.874;10.186;2022-10-16T09:30:16;3.33;;;2.10;;
44438;SDS011;30145;48.874;10.186;2022-10-16T09:32:47;3.77;;;1.90;;
44438;SDS011;30145;48.874;10.186;2022-10-16T09:35:17;3.00;;;2.00;;
44438;SDS011;30145;48.874;10.186;2022-10-16T09:37:47;4.50;;;1.80;;
44438;SDS011;30145;48.874;10.186;2022-10-16T09:40:32;2.13;;;1.70;;
44438;SDS011;30145;48.874;10.186;2022-10-16T09:43:15;2.47;;;1.57;;
44438;SDS011;30145;48.874;10.186;2022-10-16T09:45:54;2.87;;;1.40;;
44438;SDS011;30145;48.874;10.186;2022-10-16T09:48:26;1.83;;;1.33;;
44438;SDS011;30145;48.874;10.186;2022-10-16T09:51:01;1.50;;;1.40;;
44438;SDS011;30145;48.874;10.186;2022-10-16T09:56:11;3.07;;;1.70;;
44438;SDS011;30145;48.874;10.186;2022-10-16T09:58:54;1.87;;;1.30;;
44438;SDS011;30145;48.874;10.186;2022-10-16T10:01:35;3.83;;;1.37;;
44438;SDS011;30145;48.874;10.186;2022-10-16T10:04:06;1.47;;;1.30;;
44438;SDS011;30145;48.874;10.186;2022-10-16T10:06:40;2.93;;;1.37;;
44438;SDS011;30145;48.874;10.186;2022-10-16T10:09:15;1.30;;;1.20;;
44438;SDS011;30145;48.874;10.186;2022-10-16T10:11:59;3.80;;;1.30;;
44438;SDS011;30145;48.874;10.186;2022-10-16T10:14:51;2.00;;;1.10;;
44438;SDS011;30145;48.874;10.186;2022-10-16T10:17:19;3.43;;;1.70;;
44438;SDS011;30145;48.874;10.186;2022-10-16T10:19:54;3.50;;;1.40;;
44438;SDS011;30145;48.874;10.186;2022-10-16T10:22:43;3.70;;;1.60;;
44438;SDS011;30145;48.874;10.186;2022-10-16T10:36:39;1.50;;;1.40;;
44438;SDS011;30145;48.874;10.186;2022-10-16T10:53:04;2.43;;;1.30;;
44438;SDS011;30145;48.874;10.186;2022-10-16T11:01:04;2.53;;;1.30;;
44438;SDS011;30145;48.874;10.186;2022-10-16T11:06:12;2.93;;;1.20;;
44438;SDS011;30145;48.874;10.186;2022-10-16T11:08:46;1.63;;;1.20;;
44438;SDS011;30145;48.874;10.186;2022-10-16T11:11:27;2.27;;;1.40;;
44438;SDS011;30145;48.874;10.186;2022-10-16T11:13:59;4.53;;;2.10;;
44438;SDS011;30145;48.874;10.186;2022-10-16T11:19:48;2.97;;;1.40;;
44438;SDS011;30145;48.874;10.186;2022-10-16T11:22:18;4.70;;;1.30;;
44438;SDS011;30145;48.874;10.186;2022-10-16T11:27:17;3.13;;;1.50;;
44438;SDS011;30145;48.874;10.186;2022-10-16T11:29:50;4.67;;;1.20;;
44438;SDS011;30145;48.874;10.186;2022-10-16T11:32:26;3.00;;;1.20;;
44438;SDS011;30145;48.874;10.186;2022-10-16T11:34:57;1.43;;;1.17;;
44438;SDS011;30145;48.874;10.186;2022-10-16T11:37:33;1.50;;;1.40;;
44438;SDS011;30145;48.874;10.186;2022-10-16T11:43:06;1.83;;;1.40;;
44438;SDS011;30145;48.874;10.186;2022-10-16T11:48:31;1.57;;;1.23;;
44438;SDS011;30145;48.874;10.186;2022-10-16T11:51:08;1.33;;;1.20;;
44438;SDS011;30145;48.874;10.186;2022-10-16T11:54:41;4.70;;;1.27;;
44438;SDS011;30145;48.874;10.186;2022-10-16T11:57:19;1.57;;;1.30;;
44438;SDS011;30145;48.874;10.186;2022-10-16T12:04:55;1.67;;;0.87;;
44438;SDS011;30145;48.874;10.186;2022-10-16T12:07:35;3.47;;;0.90;;
44438;SDS011;30145;48.874;10.186;2022-10-16T12:10:19;5.30;;;1.10;;
44438;SDS011;30145;48.874;10.186;2022-10-16T12:12:52;2.40;;;1.10;;
44438;SDS011;30145;48.874;10.186;2022-10-16T12:18:00;15.67;;;11.97;;
44438;SDS011;30145;48.874;10.186;2022-10-16T12:20:29;3.33;;;1.10;;
44438;SDS011;30145;48.874;10.186;2022-10-16T12:30:43;4.37;;;3.57;;
44438;SDS011;30145;48.874;10.186;2022-10-16T12:33:21;10.83;;;6.00;;
44438;SDS011;30145;48.874;10.186;2022-10-16T12:35:51;3.53;;;1.23;;
44438;SDS011;30145;48.874;10.186;2022-10-16T12:38:19;1.87;;;1.00;;
44438;SDS011;30145;48.874;10.186;2022-10-16T12:40:56;1.40;;;0.97;;
44438;SDS011;30145;48.874;10.186;2022-10-16T12:46:02;1.40;;;1.00;;
44438;SDS011;30145;48.874;10.186;2022-10-16T12:48:32;2.30;;;1.00;;
44438;SDS011;30145;48.874;10.186;2022-10-16T12:51:12;2.73;;;0.90;;
44438;SDS011;30145;48.874;10.186;2022-10-16T12:54:49;1.00;;;0.87;;
44438;SDS011;30145;48.874;10.186;2022-10-16T13:16:22;2.20;;;0.90;;
44438;SDS011;30145;48.874;10.186;2022-10-16T13:22:01;2.07;;;0.90;;
44438;SDS011;30145;48.874;10.186;2022-10-16T13:24:36;3.00;;;0.73;;
44438;SDS011;30145;48.874;10.186;2022-10-16T13:30:27;2.93;;;0.97;;
44438;SDS011;30145;48.874;10.186;2022-10-16T13:33:01;1.20;;;0.80;;
44438;SDS011;30145;48.874;10.186;2022-10-16T13:35:31;0.80;;;0.80;;
44438;SDS011;30145;48.874;10.186;2022-10-16T13:38:05;2.87;;;0.87;;
44438;SDS011;30145;48.874;10.186;2022-10-16T13:40:47;1.07;;;0.90;;
44438;SDS011;30145;48.874;10.186;2022-10-16T13:43:16;1.37;;;0.90;;
44438;SDS011;30145;48.874;10.186;2022-10-16T13:46:01;1.00;;;0.90;;
44438;SDS011;30145;48.874;10.186;2022-10-16T13:48:31;3.13;;;1.17;;
44438;SDS011;30145;48.874;10.186;2022-10-16T13:53:38;2.80;;;1.10;;
44438;SDS011;30145;48.874;10.186;2022-10-16T13:56:06;0.80;;;0.80;;
44438;SDS011;30145;48.874;10.186;2022-10-16T13:58:36;1.57;;;0.90;;
44438;SDS011;30145;48.874;10.186;2022-10-16T14:03:43;6.23;;;1.47;;
44438;SDS011;30145;48.874;10.186;2022-10-16T14:06:14;2.50;;;0.97;;
44438;SDS011;30145;48.874;10.186;2022-10-16T14:09:05;1.20;;;0.80;;
44438;SDS011;30145;48.874;10.186;2022-10-16T14:11:42;2.73;;;0.97;;
44438;SDS011;30145;48.874;10.186;2022-10-16T14:14:40;2.90;;;1.03;;
44438;SDS011;30145;48.874;10.186;2022-10-16T14:17:15;3.90;;;1.20;;
44438;SDS011;30145;48.874;10.186;2022-10-16T14:19:46;3.53;;;1.17;;
44438;SDS011;30145;48.874;10.186;2022-10-16T14:22:21;1.37;;;0.70;;
44438;SDS011;30145;48.874;10.186;2022-10-16T14:25:00;2.93;;;0.83;;
44438;SDS011;30145;48.874;10.186;2022-10-16T14:27:34;1.93;;;0.70;;
44438;SDS011;30145;48.874;10.186;2022-10-16T14:30:21;0.57;;;0.57;;
44438;SDS011;30145;48.874;10.186;2022-10-16T14:35:23;1.47;;;0.80;;
44438;SDS011;30145;48.874;10.186;2022-10-16T14:38:00;1.43;;;0.80;;
44438;SDS011;30145;48.874;10.186;2022-10-16T14:40:33;2.87;;;0.90;;
44438;SDS011;30145;48.874;10.186;2022-10-16T14:43:04;3.07;;;0.80;;
44438;SDS011;30145;48.874;10.186;2022-10-16T14:45:32;1.70;;;1.00;;
44438;SDS011;30145;48.874;10.186;2022-10-16T14:48:02;5.17;;;1.30;;
44438;SDS011;30145;48.874;10.186;2022-10-16T14:50:32;1.03;;;0.90;;
44438;SDS011;30145;48.874;10.186;2022-10-16T14:52:59;2.67;;;1.53;;
44438;SDS011;30145;48.874;10.186;2022-10-16T14:55:26;3.27;;;1.47;;
44438;SDS011;30145;48.874;10.186;2022-10-16T14:57:53;2.10;;;1.30;;
44438;SDS011;30145;48.874;10.186;2022-10-16T15:00:21;2.67;;;1.20;;
44438;SDS011;30145;48.874;10.186;2022-10-16T15:02:50;1.43;;;0.90;;
44438;SDS011;30145;48.874;10.186;2022-10-16T15:05:20;2.10;;;1.00;;
44438;SDS011;30145;48.874;10.186;2022-10-16T15:07:54;1.33;;;0.90;;
44438;SDS011;30145;48.874;10.186;2022-10-16T15:10:22;2.00;;;1.07;;
44438;SDS011;30145;48.874;10.186;2022-10-16T15:12:51;3.13;;;1.30;;
44438;SDS011;30145;48.874;10.186;2022-10-16T15:18:04;4.40;;;1.27;;
44438;SDS011;30145;48.874;10.186;2022-10-16T15:20:33;6.87;;;1.20;;
44438;SDS011;30145;48.874;10.186;2022-10-16T15:23:05;4.40;;;1.27;;
44438;SDS011;30145;48.874;10.186;2022-10-16T15:25:43;3.03;;;1.20;;
44438;SDS011;30145;48.874;10.186;2022-10-16T15:28:15;5.80;;;1.30;;
44438;SDS011;30145;48.874;10.186;2022-10-16T15:30:43;2.67;;;1.90;;
44438;SDS011;30145;48.874;10.186;2022-10-16T15:33:17;2.37;;;1.67;;
44438;SDS011;30145;48.874;10.186;2022-10-16T15:35:46;2.63;;;1.40;;
44438;SDS011;30145;48.874;10.186;2022-10-16T15:38:14;1.70;;;1.30;;
44438;SDS011;30145;48.874;10.186;2022-10-16T15:40:42;2.43;;;1.13;;
44438;SDS011;30145;48.874;10.186;2022-10-16T15:43:09;2.27;;;1.40;;
44438;SDS011;30145;48.874;10.186;2022-10-16T15:45:37;2.33;;;1.40;;
44438;SDS011;30145;48.874;10.186;2022-10-16T15:48:04;2.30;;;1.47;;
44438;SDS011;30145;48.874;10.186;2022-10-16T15:50:32;2.40;;;1.93;;
44438;SDS011;30145;48.874;10.186;2022-10-16T15:52:59;2.97;;;1.70;;
44438;SDS011;30145;48.874;10.186;2022-10-16T15:55:26;2.30;;;1.57;;
44438;SDS011;30145;48.874;10.186;2022-10-16T15:57:53;1.67;;;1.53;;
44438;SDS011;30145;48.874;10.186;2022-10-16T16:00:20;6.00;;;1.90;;
44438;SDS011;30145;48.874;10.186;2022-10-16T16:02:52;2.00;;;1.23;;
44438;SDS011;30145;48.874;10.186;2022-10-16T16:05:20;3.27;;;1.50;;
44438;SDS011;30145;48.874;10.186;2022-10-16T16:07:48;2.97;;;1.50;;
44438;SDS011;30145;48.874;10.186;2022-10-16T16:10:16;3.27;;;1.30;;
44438;SDS011;30145;48.874;10.186;2022-10-16T16:12:45;2.03;;;1.70;;
44438;SDS011;30145;48.874;10.186;2022-10-16T16:15:18;3.07;;;1.40;;
44438;SDS011;30145;48.874;10.186;2022-10-16T16:17:46;4.20;;;2.20;;
44438;SDS011;30145;48.874;10.186;2022-10-16T16:20:14;6.33;;;3.43;;
44438;SDS011;30145;48.874;10.186;2022-10-16T16:22:41;3.80;;;2.40;;
44438;SDS011;30145;48.874;10.186;2022-10-16T16:25:08;5.23;;;2.20;;
44438;SDS011;30145;48.874;10.186;2022-10-16T16:27:35;4.77;;;3.27;;
44438;SDS011;30145;48.874;10.186;2022-10-16T16:30:09;17.17;;;12.50;;
44438;SDS011;30145;48.874;10.186;2022-10-16T16:32:39;18.33;;;14.77;;
44438;SDS011;30145;48.874;10.186;2022-10-16T16:35:06;13.80;;;10.63;;
44438;SDS011;30145;48.874;10.186;2022-10-16T16:37:33;6.33;;;4.03;;
44438;SDS011;30145;48.874;10.186;2022-10-16T16:40:01;10.93;;;4.17;;
44438;SDS011;30145;48.874;10.186;2022-10-16T16:42:29;6.87;;;3.17;;
44438;SDS011;30145;48.874;10.186;2022-10-16T16:44:56;7.47;;;2.93;;
44438;SDS011;30145;48.874;10.186;2022-10-16T16:47:23;9.17;;;3.20;;
44438;SDS011;30145;48.874;10.186;2022-10-16T16:49:51;5.00;;;3.30;;
44438;SDS011;30145;48.874;10.186;2022-10-16T16:52:18;8.30;;;4.73;;
44438;SDS011;30145;48.874;10.186;2022-10-16T16:54:45;2.60;;;2.33;;
44438;SDS011;30145;48.874;10.186;2022-10-16T16:57:18;3.37;;;1.80;;
44438;SDS011;30145;48.874;10.186;2022-10-16T16:59:46;5.93;;;2.20;;
44438;SDS011;30145;48.874;10.186;2022-10-16T17:02:13;6.30;;;3.03;;
44438;SDS011;30145;48.874;10.186;2022-10-16T17:04:40;5.80;;;2.97;;
44438;SDS011;30145;48.874;10.186;2022-10-16T17:07:07;5.87;;;2.97;;
44438;SDS011;30145;48.874;10.186;2022-10-16T17:09:35;4.93;;;3.40;;
44438;SDS011;30145;48.874;10.186;2022-10-16T17:12:02;4.00;;;2.53;;
44438;SDS011;30145;48.874;10.186;2022-10-16T17:14:29;3.83;;;2.17;;
44438;SDS011;30145;48.874;10.186;2022-10-16T17:16:57;3.53;;;2.50;;
44438;SDS011;30145;48.874;10.186;2022-10-16T17:19:25;4.03;;;2.73;;
44438;SDS011;30145;48.874;10.186;2022-10-16T17:21:52;3.27;;;2.53;;
44438;SDS011;30145;48.874;10.186;2022-10-16T17:24:19;5.10;;;2.30;;